sensor_id;sensor_type;location;lat;lon;timestamp;temperature;humidity
31639;DHT22;18248;51.522;7.020;2023-03-14T00:00:22;12.50;99.90
31639;DHT22;18248;51.522;7.020;2023-03-14T00:03:20;12.50;99.90
31639;DHT22;18248;51.522;7.020;2023-03-14T00:06:19;12.40;99.90
31639;DHT22;18248;51.522;7.020;2023-03-14T00:09:18;12.40;99.90
31639;DHT22;18248;51.522;7.020;2023-03-14T00:12:16;12.30;99.90
31639;DHT22;18248;51.522;7.020;2023-03-14T00:15:15;12.30;99.90
31639;DHT22;18248;51.522;7.020;2023-03-14T00:18:13;12.30;99.90
31639;DHT22;18248;51.522;7.020;2023-03-14T00:21:12;12.30;99.90
31639;DHT22;18248;51.522;7.020;2023-03-14T00:24:11;12.30;99.90
31639;DHT22;18248;51.522;7.020;2023-03-14T00:27:09;12.20;99.90
31639;DHT22;18248;51.522;7.020;2023-03-14T00:30:08;12.20;99.90
31639;DHT22;18248;51.522;7.020;2023-03-14T00:33:08;12.20;99.90
31639;DHT22;18248;51.522;7.020;2023-03-14T00:36:11;12.30;99.90
31639;DHT22;18248;51.522;7.020;2023-03-14T00:39:10;12.30;99.90
31639;DHT22;18248;51.522;7.020;2023-03-14T00:42:09;12.30;99.90
31639;DHT22;18248;51.522;7.020;2023-03-14T00:45:08;12.40;99.90
31639;DHT22;18248;51.522;7.020;2023-03-14T00:48:08;12.40;99.90
31639;DHT22;18248;51.522;7.020;2023-03-14T00:51:08;12.40;99.90
31639;DHT22;18248;51.522;7.020;2023-03-14T00:54:07;12.50;99.90
31639;DHT22;18248;51.522;7.020;2023-03-14T00:57:05;12.40;99.90
31639;DHT22;18248;51.522;7.020;2023-03-14T01:00:04;12.30;99.90
31639;DHT22;18248;51.522;7.020;2023-03-14T01:03:05;12.10;99.90
31639;DHT22;18248;51.522;7.020;2023-03-14T01:06:15;11.90;99.90
31639;DHT22;18248;51.522;7.020;2023-03-14T01:09:14;11.80;99.90
31639;DHT22;18248;51.522;7.020;2023-03-14T01:12:14;11.70;99.90
31639;DHT22;18248;51.522;7.020;2023-03-14T01:15:13;11.70;99.90
31639;DHT22;18248;51.522;7.020;2023-03-14T01:18:11;11.60;99.90
31639;DHT22;18248;51.522;7.020;2023-03-14T01:21:22;11.50;99.90
31639;DHT22;18248;51.522;7.020;2023-03-14T01:24:20;11.40;99.90
31639;DHT22;18248;51.522;7.020;2023-03-14T01:27:19;11.30;99.90
31639;DHT22;18248;51.522;7.020;2023-03-14T01:30:18;11.30;99.90
31639;DHT22;18248;51.522;7.020;2023-03-14T01:33:16;11.20;99.90
31639;DHT22;18248;51.522;7.020;2023-03-14T01:36:15;11.20;99.90
31639;DHT22;18248;51.522;7.020;2023-03-14T01:39:14;11.20;99.90
31639;DHT22;18248;51.522;7.020;2023-03-14T01:42:13;11.10;99.90
31639;DHT22;18248;51.522;7.020;2023-03-14T01:49:08;11.10;99.90
31639;DHT22;18248;51.522;7.020;2023-03-14T01:52:12;11.10;99.90
31639;DHT22;18248;51.522;7.020;2023-03-14T01:55:24;11.00;99.90
31639;DHT22;18248;51.522;7.020;2023-03-14T01:58:25;11.00;99.90
31639;DHT22;18248;51.522;7.020;2023-03-14T02:01:26;11.00;99.90
31639;DHT22;18248;51.522;7.020;2023-03-14T02:04:28;11.00;99.90
31639;DHT22;18248;51.522;7.020;2023-03-14T02:07:50;11.00;99.90
31639;DHT22;18248;51.522;7.020;2023-03-14T02:10:49;10.90;99.90
31639;DHT22;18248;51.522;7.020;2023-03-14T02:13:48;10.90;99.90
31639;DHT22;18248;51.522;7.020;2023-03-14T02:16:47;10.90;99.90
31639;DHT22;18248;51.522;7.020;2023-03-14T02:20:10;10.90;99.90
31639;DHT22;18248;51.522;7.020;2023-03-14T02:23:10;10.90;99.90
31639;DHT22;18248;51.522;7.020;2023-03-14T02:26:14;10.90;99.90
31639;DHT22;18248;51.522;7.020;2023-03-14T02:29:13;10.90;99.90
31639;DHT22;18248;51.522;7.020;2023-03-14T02:32:13;10.90;99.90
31639;DHT22;18248;51.522;7.020;2023-03-14T02:35:17;10.90;99.90
31639;DHT22;18248;51.522;7.020;2023-03-14T02:38:35;10.90;99.90
31639;DHT22;18248;51.522;7.020;2023-03-14T02:41:35;10.90;99.90
31639;DHT22;18248;51.522;7.020;2023-03-14T02:44:34;10.90;99.90
31639;DHT22;18248;51.522;7.020;2023-03-14T02:47:34;10.90;99.90
31639;DHT22;18248;51.522;7.020;2023-03-14T02:50:35;10.90;99.90
31639;DHT22;18248;51.522;7.020;2023-03-14T02:53:35;10.90;99.90
31639;DHT22;18248;51.522;7.020;2023-03-14T02:56:34;10.90;99.90
31639;DHT22;18248;51.522;7.020;2023-03-14T02:59:33;10.90;99.90
31639;DHT22;18248;51.522;7.020;2023-03-14T03:02:32;10.90;99.90
31639;DHT22;18248;51.522;7.020;2023-03-14T03:05:30;10.90;99.90
31639;DHT22;18248;51.522;7.020;2023-03-14T03:08:29;10.80;99.90
31639;DHT22;18248;51.522;7.020;2023-03-14T03:11:27;10.80;99.90
31639;DHT22;18248;51.522;7.020;2023-03-14T03:14:26;10.80;99.90
31639;DHT22;18248;51.522;7.020;2023-03-14T03:17:25;10.80;99.90
31639;DHT22;18248;51.522;7.020;2023-03-14T03:20:24;10.70;99.90
31639;DHT22;18248;51.522;7.020;2023-03-14T03:23:23;10.70;99.90
31639;DHT22;18248;51.522;7.020;2023-03-14T03:26:22;10.80;99.90
31639;DHT22;18248;51.522;7.020;2023-03-14T03:29:20;10.80;99.90
31639;DHT22;18248;51.522;7.020;2023-03-14T03:32:19;10.80;99.90
31639;DHT22;18248;51.522;7.020;2023-03-14T03:35:17;10.80;99.90
31639;DHT22;18248;51.522;7.020;2023-03-14T03:38:16;10.80;99.90
31639;DHT22;18248;51.522;7.020;2023-03-14T03:41:20;10.80;99.90
31639;DHT22;18248;51.522;7.020;2023-03-14T03:44:18;10.80;99.90
31639;DHT22;18248;51.522;7.020;2023-03-14T03:47:17;10.80;99.90
31639;DHT22;18248;51.522;7.020;2023-03-14T03:50:16;10.90;99.90
31639;DHT22;18248;51.522;7.020;2023-03-14T03:53:14;10.90;99.90
31639;DHT22;18248;51.522;7.020;2023-03-14T03:56:13;10.90;99.90
31639;DHT22;18248;51.522;7.020;2023-03-14T03:59:11;10.80;99.90
31639;DHT22;18248;51.522;7.020;2023-03-14T04:02:10;10.90;99.90
31639;DHT22;18248;51.522;7.020;2023-03-14T04:05:09;10.90;99.90
31639;DHT22;18248;51.522;7.020;2023-03-14T04:08:07;10.80;99.90
31639;DHT22;18248;51.522;7.020;2023-03-14T04:11:07;10.80;99.90
31639;DHT22;18248;51.522;7.020;2023-03-14T04:14:05;10.80;99.90
31639;DHT22;18248;51.522;7.020;2023-03-14T04:17:04;10.70;99.90
31639;DHT22;18248;51.522;7.020;2023-03-14T04:20:04;10.70;99.90
31639;DHT22;18248;51.522;7.020;2023-03-14T04:23:03;10.70;99.90
31639;DHT22;18248;51.522;7.020;2023-03-14T04:26:02;10.70;99.90
31639;DHT22;18248;51.522;7.020;2023-03-14T04:29:00;10.70;99.90
31639;DHT22;18248;51.522;7.020;2023-03-14T04:31:59;10.70;99.90
31639;DHT22;18248;51.522;7.020;2023-03-14T04:34:57;10.70;99.90
31639;DHT22;18248;51.522;7.020;2023-03-14T04:37:56;10.70;99.90
31639;DHT22;18248;51.522;7.020;2023-03-14T04:40:55;10.60;99.90
31639;DHT22;18248;51.522;7.020;2023-03-14T04:43:54;10.60;99.90
31639;DHT22;18248;51.522;7.020;2023-03-14T04:46:52;10.50;99.90
31639;DHT22;18248;51.522;7.020;2023-03-14T04:49:51;10.40;99.90
31639;DHT22;18248;51.522;7.020;2023-03-14T04:52:49;10.40;99.90
31639;DHT22;18248;51.522;7.020;2023-03-14T04:55:53;10.30;99.90
31639;DHT22;18248;51.522;7.020;2023-03-14T04:58:52;10.20;99.90
31639;DHT22;18248;51.522;7.020;2023-03-14T05:01:50;10.20;99.90
31639;DHT22;18248;51.522;7.020;2023-03-14T05:04:49;10.10;99.90
31639;DHT22;18248;51.522;7.020;2023-03-14T05:07:47;10.10;99.90
31639;DHT22;18248;51.522;7.020;2023-03-14T05:10:54;10.10;99.90
31639;DHT22;18248;51.522;7.020;2023-03-14T05:13:53;10.10;99.90
31639;DHT22;18248;51.522;7.020;2023-03-14T05:16:52;10.00;99.90
31639;DHT22;18248;51.522;7.020;2023-03-14T05:19:50;10.00;99.90
31639;DHT22;18248;51.522;7.020;2023-03-14T05:22:49;10.00;99.90
31639;DHT22;18248;51.522;7.020;2023-03-14T05:25:47;10.00;99.90
31639;DHT22;18248;51.522;7.020;2023-03-14T05:28:46;10.00;99.90
31639;DHT22;18248;51.522;7.020;2023-03-14T05:31:44;10.00;99.90
31639;DHT22;18248;51.522;7.020;2023-03-14T05:34:43;10.00;99.90
31639;DHT22;18248;51.522;7.020;2023-03-14T05:37:41;9.90;99.90
31639;DHT22;18248;51.522;7.020;2023-03-14T05:40:40;9.90;99.90
31639;DHT22;18248;51.522;7.020;2023-03-14T05:43:39;10.00;99.90
31639;DHT22;18248;51.522;7.020;2023-03-14T05:46:43;10.00;99.90
31639;DHT22;18248;51.522;7.020;2023-03-14T05:49:41;10.00;99.90
31639;DHT22;18248;51.522;7.020;2023-03-14T05:52:39;10.00;99.90
31639;DHT22;18248;51.522;7.020;2023-03-14T05:55:39;10.00;99.90
31639;DHT22;18248;51.522;7.020;2023-03-14T05:58:37;10.00;99.90
31639;DHT22;18248;51.522;7.020;2023-03-14T06:01:36;10.00;99.90
31639;DHT22;18248;51.522;7.020;2023-03-14T06:04:35;10.00;99.90
31639;DHT22;18248;51.522;7.020;2023-03-14T06:07:35;10.00;99.90
31639;DHT22;18248;51.522;7.020;2023-03-14T06:10:35;10.00;99.90
31639;DHT22;18248;51.522;7.020;2023-03-14T06:13:35;10.00;99.90
31639;DHT22;18248;51.522;7.020;2023-03-14T06:16:34;10.10;99.90
31639;DHT22;18248;51.522;7.020;2023-03-14T06:19:32;10.10;99.90
31639;DHT22;18248;51.522;7.020;2023-03-14T06:22:31;10.10;99.90
31639;DHT22;18248;51.522;7.020;2023-03-14T06:25:30;10.10;99.90
31639;DHT22;18248;51.522;7.020;2023-03-14T06:28:28;10.10;99.90
31639;DHT22;18248;51.522;7.020;2023-03-14T06:31:27;10.20;99.90
31639;DHT22;18248;51.522;7.020;2023-03-14T06:34:25;10.20;99.90
31639;DHT22;18248;51.522;7.020;2023-03-14T06:37:25;10.20;99.90
31639;DHT22;18248;51.522;7.020;2023-03-14T06:40:25;10.20;99.90
31639;DHT22;18248;51.522;7.020;2023-03-14T06:43:24;10.30;99.90
31639;DHT22;18248;51.522;7.020;2023-03-14T06:46:22;10.30;99.90
31639;DHT22;18248;51.522;7.020;2023-03-14T06:49:22;10.30;99.90
31639;DHT22;18248;51.522;7.020;2023-03-14T06:52:20;10.30;99.90
31639;DHT22;18248;51.522;7.020;2023-03-14T06:55:20;10.30;99.90
31639;DHT22;18248;51.522;7.020;2023-03-14T06:58:19;10.30;99.90
31639;DHT22;18248;51.522;7.020;2023-03-14T07:01:24;10.40;99.90
31639;DHT22;18248;51.522;7.020;2023-03-14T07:04:23;10.40;99.90
31639;DHT22;18248;51.522;7.020;2023-03-14T07:07:21;10.50;99.90
31639;DHT22;18248;51.522;7.020;2023-03-14T07:10:20;10.50;99.90
31639;DHT22;18248;51.522;7.020;2023-03-14T07:13:23;10.50;99.90
31639;DHT22;18248;51.522;7.020;2023-03-14T07:16:24;10.60;99.90
31639;DHT22;18248;51.522;7.020;2023-03-14T07:19:26;10.50;99.90
31639;DHT22;18248;51.522;7.020;2023-03-14T07:22:25;10.60;99.90
31639;DHT22;18248;51.522;7.020;2023-03-14T07:25:25;10.60;99.90
31639;DHT22;18248;51.522;7.020;2023-03-14T07:28:24;10.60;99.90
31639;DHT22;18248;51.522;7.020;2023-03-14T07:31:23;10.60;99.90
31639;DHT22;18248;51.522;7.020;2023-03-14T07:34:21;10.60;99.90
31639;DHT22;18248;51.522;7.020;2023-03-14T07:37:20;10.60;99.90
31639;DHT22;18248;51.522;7.020;2023-03-14T07:40:18;10.70;99.90
31639;DHT22;18248;51.522;7.020;2023-03-14T07:43:17;10.70;99.90
31639;DHT22;18248;51.522;7.020;2023-03-14T07:46:16;10.80;99.90
31639;DHT22;18248;51.522;7.020;2023-03-14T07:49:15;10.80;99.90
31639;DHT22;18248;51.522;7.020;2023-03-14T07:52:14;10.80;99.90
31639;DHT22;18248;51.522;7.020;2023-03-14T07:55:12;10.90;99.90
31639;DHT22;18248;51.522;7.020;2023-03-14T07:58:12;10.90;99.90
31639;DHT22;18248;51.522;7.020;2023-03-14T08:01:10;10.90;99.90
31639;DHT22;18248;51.522;7.020;2023-03-14T08:04:10;10.90;99.90
31639;DHT22;18248;51.522;7.020;2023-03-14T08:07:08;10.90;99.90
31639;DHT22;18248;51.522;7.020;2023-03-14T08:10:08;10.90;99.90
31639;DHT22;18248;51.522;7.020;2023-03-14T08:13:07;11.00;99.90
31639;DHT22;18248;51.522;7.020;2023-03-14T08:16:06;11.10;99.90
31639;DHT22;18248;51.522;7.020;2023-03-14T08:19:04;11.10;99.90
31639;DHT22;18248;51.522;7.020;2023-03-14T08:22:03;11.10;99.90
31639;DHT22;18248;51.522;7.020;2023-03-14T08:25:03;11.10;99.90
31639;DHT22;18248;51.522;7.020;2023-03-14T08:28:02;11.10;99.90
31639;DHT22;18248;51.522;7.020;2023-03-14T08:31:01;11.10;99.90
31639;DHT22;18248;51.522;7.020;2023-03-14T08:33:59;11.20;99.90
31639;DHT22;18248;51.522;7.020;2023-03-14T08:36:59;11.20;99.90
31639;DHT22;18248;51.522;7.020;2023-03-14T08:39:58;11.30;99.90
31639;DHT22;18248;51.522;7.020;2023-03-14T08:42:56;11.40;99.90
31639;DHT22;18248;51.522;7.020;2023-03-14T08:45:59;11.50;99.90
31639;DHT22;18248;51.522;7.020;2023-03-14T08:48:58;11.50;99.90
31639;DHT22;18248;51.522;7.020;2023-03-14T08:51:56;11.60;99.90
31639;DHT22;18248;51.522;7.020;2023-03-14T08:54:55;11.50;99.90
31639;DHT22;18248;51.522;7.020;2023-03-14T08:57:53;11.60;99.90
31639;DHT22;18248;51.522;7.020;2023-03-14T09:00:52;11.50;99.90
31639;DHT22;18248;51.522;7.020;2023-03-14T09:03:50;11.60;99.90
31639;DHT22;18248;51.522;7.020;2023-03-14T09:06:49;11.60;99.90
31639;DHT22;18248;51.522;7.020;2023-03-14T09:09:48;11.60;99.90
31639;DHT22;18248;51.522;7.020;2023-03-14T09:12:46;11.60;99.90
31639;DHT22;18248;51.522;7.020;2023-03-14T09:15:50;11.60;99.90
31639;DHT22;18248;51.522;7.020;2023-03-14T09:18:49;11.50;99.90
31639;DHT22;18248;51.522;7.020;2023-03-14T09:21:48;11.50;99.90
31639;DHT22;18248;51.522;7.020;2023-03-14T09:24:47;11.50;99.90
31639;DHT22;18248;51.522;7.020;2023-03-14T09:27:45;11.40;99.90
31639;DHT22;18248;51.522;7.020;2023-03-14T09:30:44;11.00;99.90
31639;DHT22;18248;51.522;7.020;2023-03-14T09:33:43;10.90;99.90
31639;DHT22;18248;51.522;7.020;2023-03-14T09:36:42;10.70;99.90
31639;DHT22;18248;51.522;7.020;2023-03-14T09:39:42;10.60;99.90
31639;DHT22;18248;51.522;7.020;2023-03-14T09:42:41;10.50;99.90
31639;DHT22;18248;51.522;7.020;2023-03-14T09:45:41;10.50;99.90
31639;DHT22;18248;51.522;7.020;2023-03-14T09:48:44;10.40;99.90
31639;DHT22;18248;51.522;7.020;2023-03-14T09:51:45;10.40;99.90
31639;DHT22;18248;51.522;7.020;2023-03-14T09:54:52;10.30;99.90
31639;DHT22;18248;51.522;7.020;2023-03-14T09:57:55;10.30;99.90
31639;DHT22;18248;51.522;7.020;2023-03-14T10:00:56;10.40;99.90
31639;DHT22;18248;51.522;7.020;2023-03-14T10:04:00;10.40;99.90
31639;DHT22;18248;51.522;7.020;2023-03-14T10:07:00;10.40;99.90
31639;DHT22;18248;51.522;7.020;2023-03-14T10:09:59;10.30;99.90
31639;DHT22;18248;51.522;7.020;2023-03-14T10:13:18;10.30;99.90
31639;DHT22;18248;51.522;7.020;2023-03-14T10:16:28;10.30;99.90
31639;DHT22;18248;51.522;7.020;2023-03-14T10:19:27;10.30;99.90
31639;DHT22;18248;51.522;7.020;2023-03-14T10:22:31;10.30;99.90
31639;DHT22;18248;51.522;7.020;2023-03-14T10:25:33;10.30;99.90
31639;DHT22;18248;51.522;7.020;2023-03-14T10:28:39;10.20;99.90
31639;DHT22;18248;51.522;7.020;2023-03-14T10:32:00;10.10;99.90
31639;DHT22;18248;51.522;7.020;2023-03-14T10:38:04;9.70;99.90
31639;DHT22;18248;51.522;7.020;2023-03-14T10:41:24;9.70;99.90
31639;DHT22;18248;51.522;7.020;2023-03-14T10:44:24;9.60;99.90
31639;DHT22;18248;51.522;7.020;2023-03-14T10:47:26;9.60;99.90
31639;DHT22;18248;51.522;7.020;2023-03-14T10:50:30;9.60;99.90
31639;DHT22;18248;51.522;7.020;2023-03-14T10:56:39;9.40;99.90
31639;DHT22;18248;51.522;7.020;2023-03-14T10:59:39;9.30;99.90
31639;DHT22;18248;51.522;7.020;2023-03-14T11:03:07;9.20;99.90
31639;DHT22;18248;51.522;7.020;2023-03-14T11:06:44;9.20;99.90
31639;DHT22;18248;51.522;7.020;2023-03-14T11:16:56;9.30;99.90
31639;DHT22;18248;51.522;7.020;2023-03-14T11:20:31;9.20;99.90
31639;DHT22;18248;51.522;7.020;2023-03-14T11:26:59;9.20;99.90
31639;DHT22;18248;51.522;7.020;2023-03-14T11:33:17;9.30;99.90
31639;DHT22;18248;51.522;7.020;2023-03-14T11:36:20;9.30;99.90
31639;DHT22;18248;51.522;7.020;2023-03-14T11:39:21;9.20;99.90
31639;DHT22;18248;51.522;7.020;2023-03-14T11:42:21;9.10;99.90
31639;DHT22;18248;51.522;7.020;2023-03-14T11:45:32;9.10;99.90
31639;DHT22;18248;51.522;7.020;2023-03-14T11:48:42;9.20;99.90
31639;DHT22;18248;51.522;7.020;2023-03-14T11:51:47;9.10;99.90
31639;DHT22;18248;51.522;7.020;2023-03-14T11:55:37;9.10;99.90
31639;DHT22;18248;51.522;7.020;2023-03-14T11:58:20;9.10;99.90
31639;DHT22;18248;51.522;7.020;2023-03-14T12:01:25;9.00;99.90
31639;DHT22;18248;51.522;7.020;2023-03-14T12:11:04;9.00;99.90
31639;DHT22;18248;51.522;7.020;2023-03-14T12:14:18;9.20;99.90
31639;DHT22;18248;51.522;7.020;2023-03-14T12:17:24;9.30;99.90
31639;DHT22;18248;51.522;7.020;2023-03-14T12:20:25;9.40;99.90
31639;DHT22;18248;51.522;7.020;2023-03-14T12:23:25;9.50;99.90
31639;DHT22;18248;51.522;7.020;2023-03-14T12:26:26;9.70;99.90
31639;DHT22;18248;51.522;7.020;2023-03-14T12:29:25;9.70;99.90
31639;DHT22;18248;51.522;7.020;2023-03-14T12:32:24;9.90;99.90
31639;DHT22;18248;51.522;7.020;2023-03-14T12:35:37;9.90;99.90
31639;DHT22;18248;51.522;7.020;2023-03-14T12:41:52;10.00;99.90
31639;DHT22;18248;51.522;7.020;2023-03-14T12:44:51;9.90;99.90
31639;DHT22;18248;51.522;7.020;2023-03-14T12:51:04;9.50;99.90
31639;DHT22;18248;51.522;7.020;2023-03-14T12:57:47;9.00;99.90
31639;DHT22;18248;51.522;7.020;2023-03-14T13:00:55;8.90;99.90
31639;DHT22;18248;51.522;7.020;2023-03-14T13:03:57;8.90;99.90
31639;DHT22;18248;51.522;7.020;2023-03-14T13:06:59;8.90;99.90
31639;DHT22;18248;51.522;7.020;2023-03-14T13:13:19;9.20;99.90
31639;DHT22;18248;51.522;7.020;2023-03-14T13:16:20;9.20;99.90
31639;DHT22;18248;51.522;7.020;2023-03-14T13:19:23;9.30;99.90
31639;DHT22;18248;51.522;7.020;2023-03-14T13:22:29;9.30;99.90
31639;DHT22;18248;51.522;7.020;2023-03-14T13:25:33;9.20;99.90
31639;DHT22;18248;51.522;7.020;2023-03-14T13:28:34;9.20;99.90
31639;DHT22;18248;51.522;7.020;2023-03-14T13:31:33;9.20;99.90
31639;DHT22;18248;51.522;7.020;2023-03-14T13:34:33;9.20;99.90
31639;DHT22;18248;51.522;7.020;2023-03-14T13:37:39;9.20;99.90
31639;DHT22;18248;51.522;7.020;2023-03-14T13:40:38;9.30;99.90
31639;DHT22;18248;51.522;7.020;2023-03-14T13:43:41;9.40;99.90
31639;DHT22;18248;51.522;7.020;2023-03-14T13:46:41;9.50;99.90
31639;DHT22;18248;51.522;7.020;2023-03-14T13:49:41;9.70;99.90
31639;DHT22;18248;51.522;7.020;2023-03-14T13:52:40;9.80;99.90
31639;DHT22;18248;51.522;7.020;2023-03-14T13:55:39;9.80;99.90
31639;DHT22;18248;51.522;7.020;2023-03-14T13:58:39;9.80;99.90
31639;DHT22;18248;51.522;7.020;2023-03-14T14:01:38;9.90;99.90
31639;DHT22;18248;51.522;7.020;2023-03-14T14:04:37;10.00;99.90
31639;DHT22;18248;51.522;7.020;2023-03-14T14:07:35;10.20;99.90
31639;DHT22;18248;51.522;7.020;2023-03-14T14:10:37;10.10;99.90
31639;DHT22;18248;51.522;7.020;2023-03-14T14:13:36;10.10;99.90
31639;DHT22;18248;51.522;7.020;2023-03-14T14:16:35;10.20;99.90
31639;DHT22;18248;51.522;7.020;2023-03-14T14:19:35;10.20;99.90
31639;DHT22;18248;51.522;7.020;2023-03-14T14:22:35;10.30;99.90
31639;DHT22;18248;51.522;7.020;2023-03-14T14:25:35;10.40;99.90
31639;DHT22;18248;51.522;7.020;2023-03-14T14:28:35;10.40;99.90
31639;DHT22;18248;51.522;7.020;2023-03-14T14:31:35;10.50;99.90
31639;DHT22;18248;51.522;7.020;2023-03-14T14:34:42;10.50;99.90
31639;DHT22;18248;51.522;7.020;2023-03-14T14:37:48;10.40;99.90
31639;DHT22;18248;51.522;7.020;2023-03-14T14:40:50;10.40;99.90
31639;DHT22;18248;51.522;7.020;2023-03-14T14:43:52;10.50;99.90
31639;DHT22;18248;51.522;7.020;2023-03-14T14:46:52;10.50;99.90
31639;DHT22;18248;51.522;7.020;2023-03-14T14:49:52;10.40;99.90
31639;DHT22;18248;51.522;7.020;2023-03-14T14:52:57;10.40;99.90
31639;DHT22;18248;51.522;7.020;2023-03-14T14:56:04;10.40;99.90
31639;DHT22;18248;51.522;7.020;2023-03-14T14:59:04;10.40;99.90
31639;DHT22;18248;51.522;7.020;2023-03-14T15:02:40;10.30;99.90
31639;DHT22;18248;51.522;7.020;2023-03-14T15:05:43;10.30;99.90
31639;DHT22;18248;51.522;7.020;2023-03-14T15:08:47;10.30;99.90
31639;DHT22;18248;51.522;7.020;2023-03-14T15:11:46;10.20;99.90
31639;DHT22;18248;51.522;7.020;2023-03-14T15:14:46;10.20;99.90
31639;DHT22;18248;51.522;7.020;2023-03-14T15:17:45;10.20;99.90
31639;DHT22;18248;51.522;7.020;2023-03-14T15:20:44;10.20;99.90
31639;DHT22;18248;51.522;7.020;2023-03-14T15:23:43;10.10;99.90
31639;DHT22;18248;51.522;7.020;2023-03-14T15:26:41;10.00;99.90
31639;DHT22;18248;51.522;7.020;2023-03-14T15:29:42;9.90;99.90
31639;DHT22;18248;51.522;7.020;2023-03-14T15:32:43;9.80;99.90
31639;DHT22;18248;51.522;7.020;2023-03-14T15:35:43;9.70;99.90
31639;DHT22;18248;51.522;7.020;2023-03-14T15:38:41;9.50;99.90
31639;DHT22;18248;51.522;7.020;2023-03-14T15:41:40;9.40;99.90
31639;DHT22;18248;51.522;7.020;2023-03-14T15:44:38;9.50;99.90
31639;DHT22;18248;51.522;7.020;2023-03-14T15:47:37;9.40;99.90
31639;DHT22;18248;51.522;7.020;2023-03-14T15:50:36;9.30;99.90
31639;DHT22;18248;51.522;7.020;2023-03-14T15:53:34;9.30;99.90
31639;DHT22;18248;51.522;7.020;2023-03-14T15:56:35;9.10;99.90
31639;DHT22;18248;51.522;7.020;2023-03-14T15:59:35;9.00;99.90
31639;DHT22;18248;51.522;7.020;2023-03-14T16:02:35;9.00;99.90
31639;DHT22;18248;51.522;7.020;2023-03-14T16:05:39;9.00;99.90
31639;DHT22;18248;51.522;7.020;2023-03-14T16:08:38;9.00;99.90
31639;DHT22;18248;51.522;7.020;2023-03-14T16:11:36;9.00;99.90
31639;DHT22;18248;51.522;7.020;2023-03-14T16:14:36;9.10;99.90
31639;DHT22;18248;51.522;7.020;2023-03-14T16:17:40;9.10;99.90
31639;DHT22;18248;51.522;7.020;2023-03-14T16:20:41;9.00;99.90
31639;DHT22;18248;51.522;7.020;2023-03-14T16:23:40;9.00;99.90
31639;DHT22;18248;51.522;7.020;2023-03-14T16:26:39;8.90;99.90
31639;DHT22;18248;51.522;7.020;2023-03-14T16:29:37;8.90;99.90
31639;DHT22;18248;51.522;7.020;2023-03-14T16:32:36;8.80;99.90
31639;DHT22;18248;51.522;7.020;2023-03-14T16:35:36;8.70;99.90
31639;DHT22;18248;51.522;7.020;2023-03-14T16:38:35;8.70;99.90
31639;DHT22;18248;51.522;7.020;2023-03-14T16:41:34;8.60;99.90
31639;DHT22;18248;51.522;7.020;2023-03-14T16:44:33;8.60;99.90
31639;DHT22;18248;51.522;7.020;2023-03-14T16:47:34;8.60;99.90
31639;DHT22;18248;51.522;7.020;2023-03-14T16:50:33;8.60;99.90
31639;DHT22;18248;51.522;7.020;2023-03-14T16:53:31;8.60;99.90
31639;DHT22;18248;51.522;7.020;2023-03-14T16:56:30;8.50;99.90
31639;DHT22;18248;51.522;7.020;2023-03-14T16:59:28;8.50;99.90
31639;DHT22;18248;51.522;7.020;2023-03-14T17:02:27;8.40;99.90
31639;DHT22;18248;51.522;7.020;2023-03-14T17:05:25;8.30;99.90
31639;DHT22;18248;51.522;7.020;2023-03-14T17:08:24;8.30;99.90
31639;DHT22;18248;51.522;7.020;2023-03-14T17:11:23;8.20;99.90
31639;DHT22;18248;51.522;7.020;2023-03-14T17:14:21;8.30;99.90
31639;DHT22;18248;51.522;7.020;2023-03-14T17:17:21;8.20;99.90
31639;DHT22;18248;51.522;7.020;2023-03-14T17:20:21;8.10;99.90
31639;DHT22;18248;51.522;7.020;2023-03-14T17:23:20;8.10;99.90
31639;DHT22;18248;51.522;7.020;2023-03-14T17:26:19;8.00;99.90
31639;DHT22;18248;51.522;7.020;2023-03-14T17:29:18;8.10;99.90
31639;DHT22;18248;51.522;7.020;2023-03-14T17:32:16;8.00;99.90
31639;DHT22;18248;51.522;7.020;2023-03-14T17:35:16;7.90;99.90
31639;DHT22;18248;51.522;7.020;2023-03-14T17:38:14;7.80;99.90
31639;DHT22;18248;51.522;7.020;2023-03-14T17:41:14;7.80;99.90
31639;DHT22;18248;51.522;7.020;2023-03-14T17:44:12;7.80;99.90
31639;DHT22;18248;51.522;7.020;2023-03-14T17:47:11;7.80;99.90
31639;DHT22;18248;51.522;7.020;2023-03-14T17:50:10;7.80;99.90
31639;DHT22;18248;51.522;7.020;2023-03-14T17:53:09;7.70;99.90
31639;DHT22;18248;51.522;7.020;2023-03-14T17:56:08;7.70;99.90
31639;DHT22;18248;51.522;7.020;2023-03-14T17:59:07;7.70;99.90
31639;DHT22;18248;51.522;7.020;2023-03-14T18:02:08;7.70;99.90
31639;DHT22;18248;51.522;7.020;2023-03-14T18:05:08;7.70;99.90
31639;DHT22;18248;51.522;7.020;2023-03-14T18:08:11;7.60;99.90
31639;DHT22;18248;51.522;7.020;2023-03-14T18:11:11;7.60;99.90
31639;DHT22;18248;51.522;7.020;2023-03-14T18:14:11;7.60;99.90
31639;DHT22;18248;51.522;7.020;2023-03-14T18:17:13;7.60;99.90
31639;DHT22;18248;51.522;7.020;2023-03-14T18:20:12;7.50;99.90
31639;DHT22;18248;51.522;7.020;2023-03-14T18:23:11;7.40;99.90
31639;DHT22;18248;51.522;7.020;2023-03-14T18:26:10;7.40;99.90
31639;DHT22;18248;51.522;7.020;2023-03-14T18:29:08;7.40;99.90
31639;DHT22;18248;51.522;7.020;2023-03-14T18:32:08;7.30;99.90
31639;DHT22;18248;51.522;7.020;2023-03-14T18:35:07;7.30;99.90
31639;DHT22;18248;51.522;7.020;2023-03-14T18:38:05;7.30;99.90
31639;DHT22;18248;51.522;7.020;2023-03-14T18:41:09;7.20;99.90
31639;DHT22;18248;51.522;7.020;2023-03-14T18:44:09;7.20;99.90
31639;DHT22;18248;51.522;7.020;2023-03-14T18:47:09;7.20;99.90
31639;DHT22;18248;51.522;7.020;2023-03-14T18:50:08;7.10;99.90
31639;DHT22;18248;51.522;7.020;2023-03-14T18:53:07;7.10;99.90
31639;DHT22;18248;51.522;7.020;2023-03-14T18:56:06;7.10;99.90
31639;DHT22;18248;51.522;7.020;2023-03-14T18:59:04;7.10;99.90
31639;DHT22;18248;51.522;7.020;2023-03-14T19:02:03;7.10;99.90
31639;DHT22;18248;51.522;7.020;2023-03-14T19:05:01;7.10;99.90
31639;DHT22;18248;51.522;7.020;2023-03-14T19:08:00;7.00;99.90
31639;DHT22;18248;51.522;7.020;2023-03-14T19:11:02;7.00;99.90
31639;DHT22;18248;51.522;7.020;2023-03-14T19:14:01;7.00;99.90
31639;DHT22;18248;51.522;7.020;2023-03-14T19:17:01;7.00;99.90
31639;DHT22;18248;51.522;7.020;2023-03-14T19:19:59;7.00;99.90
31639;DHT22;18248;51.522;7.020;2023-03-14T19:22:58;7.00;99.90
31639;DHT22;18248;51.522;7.020;2023-03-14T19:25:56;6.90;99.90
31639;DHT22;18248;51.522;7.020;2023-03-14T19:28:55;6.90;99.90
31639;DHT22;18248;51.522;7.020;2023-03-14T19:31:53;6.90;99.90
31639;DHT22;18248;51.522;7.020;2023-03-14T19:34:52;6.80;99.90
31639;DHT22;18248;51.522;7.020;2023-03-14T19:37:50;6.80;99.90
31639;DHT22;18248;51.522;7.020;2023-03-14T19:40:54;6.80;99.90
31639;DHT22;18248;51.522;7.020;2023-03-14T19:43:53;6.80;99.90
31639;DHT22;18248;51.522;7.020;2023-03-14T19:46:52;6.70;99.90
31639;DHT22;18248;51.522;7.020;2023-03-14T19:49:51;6.70;99.90
31639;DHT22;18248;51.522;7.020;2023-03-14T19:52:49;6.70;99.90